• Join FlightAware (Why Join?)
  • Login
  • US Flag 
02:02PM EDT


 

Airport Tracker/Info


-or-


 

Live Flight TrackerFlight Track Log ✈ N53NW ✈ 13-May-2013 ✈ KMSN - KTYQ

Flight Track Log - Related Links

Times and Time Zones

All times are in EDT time to prevent confusion due to time zone crossing. See the N53NW flight status page for this flight to view local times or setup timezone preferences in your user account.

Time Position Orientation Groundspeed Altitude Reporting Facility
EDT Latitude Longitude Course Direction KTS MPH feet Rate Location/Type
12:24PM 43.1033 -89.3486 137° Southeast 218 251 2,900  Level Chicago Center
12:25PM 43.0397 -89.2675 137° Southeast 272 313 8,500 4,620 Climbing Chicago Center
12:26PM 42.9889 -89.1850 130° Southeast 283 326 12,500 3,720 Climbing Chicago Center
12:27PM 42.9317 -89.0989 132° Southeast 301 346 16,300 3,240 Climbing Chicago Center
12:28PM 42.8650 -89.0261 141° Southeast 323 372 19,300 2,520 Climbing Chicago Center
12:29PM 42.7858 -88.9586 148° Southeast 335 386 21,600 1,860 Climbing Chicago Center
12:30PM 42.6797 -88.8719 149° Southeast 380 437 23,200 1,560 Climbing Chicago Center
12:31PM 42.5764 -88.7850 148° Southeast 430 495 24,900 840 Climbing Chicago Center
12:32PM 42.4700 -88.6975 149° Southeast 445 512 25,000  Climbing Chicago Center
12:33PM 42.3608 -88.6081 149° Southeast 456 525 25,000  Level Chicago Center
12:34PM 42.2425 -88.5114 149° Southeast 461 531 25,000  Level Chicago Center
12:35PM 42.1319 -88.4211 149° Southeast 466 536 25,000  Level Chicago Center
12:37PM 42.0214 -88.3333 149° Southeast 464 534 25,000  Level Chicago Center
12:38PM 41.9111 -88.2431 149° Southeast 465 535 25,000  Level Chicago Center
12:39PM 41.8011 -88.1533 149° Southeast 465 535 25,000  Level Chicago Center
12:40PM 41.6672 -88.0467 149° Southeast 466 536 25,000  Level Chicago Center
12:41PM 41.5553 -87.9578 149° Southeast 465 535 25,000  Level Chicago Center
12:42PM 41.4422 -87.8658 149° Southeast 464 534 25,000  Level Chicago Center
12:43PM 41.3314 -87.7742 148° Southeast 464 534 25,000  Level Chicago Center
12:44PM 41.2333 -87.6675 141° Southeast 455 524 25,000  Level Chicago Center
12:45PM 41.1364 -87.5628 141° Southeast 451 519 25,000  Level Chicago Center
12:46PM 41.0400 -87.4583 141° Southeast 450 518 25,000 -480 Level Chicago Center
12:47PM 40.9072 -87.3600 151° Southeast 460 529 24,000 -780 Descending Chicago Center
12:48PM 40.7947 -87.2867 154° Southeast 454 522 23,400 -1,260 Descending Chicago Center
12:49PM 40.6861 -87.2150 153° Southeast 440 506 21,400 -1,860 Descending Chicago Center
12:50PM 40.5828 -87.1475 154° Southeast 420 483 19,600 -1,740 Descending Chicago Center
12:51PM 40.4856 -87.0847 154° Southeast 409 471 17,900 -1,620 Descending Chicago Center
12:52PM 40.3703 -87.0100 154° Southeast 389 448 16,300 -1,560 Descending Chicago Center
12:53PM 40.2764 -86.9497 154° Southeast 379 436 14,700 -1,560 Descending Chicago Center
12:54PM 40.1858 -86.8914 154° Southeast 366 421 13,100 -1,560 Descending Chicago Center
12:55PM 40.1153 -86.8033 136° Southeast 355 409 11,500 -1,560 Descending Chicago Center
12:56PM 40.0753 -86.7017 117° Southeast 327 376 9,900 -1,800 Descending Chicago Center
12:57PM 40.0642 -86.5750 96° East 296 341 7,900 -1,860 Descending Chicago Center
12:58PM 40.0544 -86.4731 97° East 289 333 6,100 -1,920 Descending Chicago Center
12:59PM 40.0472 -86.3775 96° East 277 319 3,900 -2,040 Descending Indianapolis Center